createdAt,value
2018-06-25T00:01:49.303Z,99.97
2018-06-25T00:04:18.124Z,100.00
2018-06-25T00:06:46.954Z,98.79
2018-06-25T00:09:15.810Z,99.54
2018-06-25T00:11:44.639Z,99.46
2018-06-25T00:14:13.770Z,99.27
2018-06-25T00:16:42.972Z,99.52
2018-06-25T00:19:11.833Z,99.37
2018-06-25T00:21:41.298Z,98.95
2018-06-25T00:24:10.440Z,99.15
2018-06-25T00:26:39.301Z,98.93
2018-06-25T00:29:08.364Z,98.69
2018-06-25T00:31:37.186Z,98.90
2018-06-25T00:34:06.108Z,98.45
2018-06-25T00:36:35.399Z,99.13
2018-06-25T00:39:04.359Z,98.79
2018-06-25T00:41:33.201Z,98.72
2018-06-25T00:44:02.340Z,98.58
2018-06-25T00:46:31.628Z,98.82
2018-06-25T00:49:00.522Z,98.98
2018-06-25T00:51:29.735Z,98.43
2018-06-25T00:53:58.851Z,98.10
2018-06-25T00:56:28.598Z,98.19
2018-06-25T00:59:08.487Z,98.49
2018-06-25T01:01:37.308Z,98.73
2018-06-25T01:04:06.467Z,99.17
2018-06-25T01:06:35.355Z,98.54
2018-06-25T01:09:06.290Z,98.81
2018-06-25T01:11:35.101Z,98.92
2018-06-25T01:14:04.249Z,98.88
2018-06-25T01:16:33.371Z,98.95
2018-06-25T01:19:02.188Z,99.05
2018-06-25T01:21:31.607Z,99.22
2018-06-25T01:24:01.343Z,98.41
2018-06-25T01:26:30.543Z,98.30
2018-06-25T01:28:59.822Z,98.73
2018-06-25T01:31:28.930Z,98.76
2018-06-25T01:33:57.748Z,98.41
2018-06-25T01:36:26.613Z,98.04
2018-06-25T01:38:56.010Z,98.25
2018-06-25T01:41:25.326Z,97.99
2018-06-25T01:43:54.741Z,98.21
2018-06-25T01:46:23.589Z,98.59
2018-06-25T01:48:52.704Z,98.20
2018-06-25T01:51:21.560Z,98.29
2018-06-25T01:53:50.396Z,98.07
2018-06-25T01:56:19.904Z,98.34
2018-06-25T01:58:49.048Z,98.46
2018-06-25T02:01:17.864Z,98.84
2018-06-25T02:03:46.706Z,98.26
2018-06-25T02:06:15.508Z,98.56
2018-06-25T02:08:44.783Z,98.48
2018-06-25T02:11:14.247Z,98.80
2018-06-25T02:13:43.386Z,98.65
2018-06-25T02:16:12.723Z,98.54
2018-06-25T02:18:41.912Z,98.96
2018-06-25T02:21:10.764Z,98.50
2018-06-25T02:23:39.930Z,98.94
2018-06-25T02:26:09.383Z,98.88
2018-06-25T02:28:38.544Z,99.19
2018-06-25T02:31:07.369Z,98.85
2018-06-25T02:33:36.598Z,99.10
2018-06-25T02:36:06.011Z,99.18
2018-06-25T02:38:34.897Z,99.64
2018-06-25T02:41:03.761Z,98.93
2018-06-25T02:43:32.626Z,99.32
2018-06-25T02:46:01.513Z,99.06
2018-06-25T02:48:30.441Z,99.24
2018-06-25T02:50:59.510Z,99.00
2018-06-25T02:53:28.654Z,99.06
2018-06-25T02:55:58.137Z,99.50
2018-06-25T02:58:27.002Z,99.91
2018-06-25T03:00:56.033Z,99.55
2018-06-25T03:03:25.146Z,99.57
2018-06-25T03:05:54.338Z,99.59
2018-06-25T03:08:23.134Z,99.35
2018-06-25T03:10:51.979Z,99.45
2018-06-25T03:13:20.839Z,99.79
2018-06-25T03:15:49.947Z,99.49
2018-06-25T03:18:19.435Z,100.00
2018-06-25T03:20:48.586Z,100.00
2018-06-25T03:23:17.426Z,100.00
2018-06-25T03:25:46.850Z,99.98
2018-06-25T03:28:15.731Z,100.00
2018-06-25T03:30:44.949Z,100.00
2018-06-25T03:33:14.051Z,100.00
2018-06-25T03:35:42.908Z,100.00
2018-06-25T03:38:12.137Z,100.00
2018-06-25T03:40:40.924Z,99.87
2018-06-25T03:43:09.809Z,100.00
2018-06-25T03:45:39.111Z,100.00
2018-06-25T03:48:08.187Z,100.00
2018-06-25T03:50:36.968Z,100.00
2018-06-25T03:53:06.952Z,100.00
2018-06-25T03:55:36.058Z,100.00
2018-06-25T03:58:04.941Z,100.00
2018-06-25T04:00:34.207Z,100.00
2018-06-25T04:03:03.024Z,99.79
2018-06-25T04:05:31.920Z,99.39
2018-06-25T04:08:01.340Z,100.00
2018-06-25T04:10:30.747Z,100.00
2018-06-25T04:12:59.605Z,99.96
2018-06-25T04:15:29.382Z,99.88
2018-06-25T04:17:58.599Z,100.00
2018-06-25T04:20:27.742Z,100.00
2018-06-25T04:25:59.612Z,100.00
2018-06-25T04:28:28.547Z,100.00
2018-06-25T04:30:58.148Z,100.00
2018-06-25T04:33:27.417Z,100.00
2018-06-25T04:35:56.536Z,100.00
2018-06-25T04:38:25.805Z,100.00
2018-06-25T04:40:54.609Z,100.00
2018-06-25T04:43:23.705Z,100.00
2018-06-25T04:45:52.600Z,100.00
2018-06-25T04:48:21.759Z,100.00
2018-06-25T04:50:50.555Z,100.00
2018-06-25T04:53:19.706Z,100.00
2018-06-25T04:55:49.214Z,100.00
2018-06-25T04:58:18.266Z,99.76
2018-06-25T05:00:47.569Z,100.00
2018-06-25T05:03:16.622Z,99.71
2018-06-25T05:05:45.488Z,98.82
2018-06-25T05:08:14.697Z,99.13
2018-06-25T05:10:43.611Z,99.05
2018-06-25T05:13:12.843Z,98.82
2018-06-25T05:15:41.986Z,97.18
2018-06-25T05:18:10.793Z,97.35
2018-06-25T05:20:40.095Z,97.23
2018-06-25T05:23:09.224Z,97.00
2018-06-25T05:25:38.315Z,96.56
2018-06-25T05:28:07.676Z,95.53
2018-06-25T05:30:36.488Z,94.95
2018-06-25T05:33:05.897Z,94.10
2018-06-25T05:35:35.352Z,94.07
2018-06-25T05:38:04.535Z,93.86
2018-06-25T05:40:33.889Z,94.33
2018-06-25T05:43:02.771Z,92.85
2018-06-25T05:45:31.931Z,92.48
2018-06-25T05:48:01.147Z,92.04
2018-06-25T05:50:30.236Z,93.14
2018-06-25T05:53:06.183Z,92.77
2018-06-25T05:55:35.380Z,92.54
2018-06-25T05:58:04.251Z,92.75
2018-06-25T06:00:33.437Z,92.73
2018-06-25T06:03:02.899Z,92.17
2018-06-25T06:05:32.036Z,92.08
2018-06-25T06:08:00.995Z,92.33
2018-06-25T06:10:30.203Z,91.58
2018-06-25T06:12:59.374Z,90.75
2018-06-25T06:15:28.860Z,90.70
2018-06-25T06:17:58.161Z,89.88
2018-06-25T06:20:27.099Z,89.96
2018-06-25T06:22:55.933Z,89.95
2018-06-25T06:25:25.352Z,89.93
2018-06-25T06:27:54.545Z,89.85
2018-06-25T06:30:23.384Z,89.72
2018-06-25T06:32:52.636Z,90.57
2018-06-25T06:35:21.519Z,90.85
2018-06-25T06:37:50.632Z,90.70
2018-06-25T06:40:19.687Z,90.50
2018-06-25T06:42:48.519Z,90.69
2018-06-25T06:45:17.366Z,90.46
2018-06-25T06:47:46.237Z,90.06
2018-06-25T06:50:15.564Z,90.07
2018-06-25T06:52:44.735Z,89.40
2018-06-25T06:55:14.009Z,89.16
2018-06-25T06:57:42.891Z,88.29
2018-06-25T07:00:11.694Z,88.10
2018-06-25T07:02:40.926Z,87.64
2018-06-25T07:05:09.848Z,87.48
2018-06-25T07:07:39.483Z,87.35
2018-06-25T07:10:08.633Z,87.30
2018-06-25T07:12:37.753Z,86.97
2018-06-25T07:15:06.955Z,87.57
2018-06-25T07:17:36.399Z,88.15
2018-06-25T07:20:05.574Z,87.49
2018-06-25T07:22:34.318Z,87.33
2018-06-25T07:25:04.142Z,87.43
2018-06-25T07:27:33.280Z,85.75
2018-06-25T07:30:02.437Z,83.86
2018-06-25T07:32:32.215Z,83.64
2018-06-25T07:35:01.124Z,83.93
2018-06-25T07:37:30.394Z,83.00
2018-06-25T07:39:59.575Z,82.96
2018-06-25T07:42:28.416Z,83.59
2018-06-25T07:44:57.582Z,83.49
2018-06-25T07:47:27.136Z,82.81
2018-06-25T07:49:55.933Z,82.51
2018-06-25T07:52:24.725Z,82.58
2018-06-25T07:54:53.786Z,83.15
2018-06-25T07:57:22.994Z,83.55
2018-06-25T07:59:52.097Z,83.78
2018-06-25T08:02:21.681Z,82.81
2018-06-25T08:04:51.812Z,81.14
2018-06-25T08:07:20.654Z,82.31
2018-06-25T08:09:49.667Z,82.31
2018-06-25T08:12:18.773Z,81.57
2018-06-25T08:14:47.620Z,81.13
2018-06-25T08:17:16.449Z,81.16
2018-06-25T08:19:45.792Z,81.58
2018-06-25T08:22:14.962Z,79.56
2018-06-25T08:24:44.425Z,79.60
2018-06-25T08:27:13.458Z,78.45
2018-06-25T08:29:42.588Z,78.36
2018-06-25T08:32:11.378Z,77.54
2018-06-25T08:34:40.152Z,77.63
2018-06-25T08:37:09.332Z,77.32
2018-06-25T08:39:38.953Z,77.49
2018-06-25T08:42:08.089Z,76.92
2018-06-25T08:44:37.196Z,77.75
2018-06-25T08:47:06.327Z,76.02
2018-06-25T08:49:35.078Z,75.46
2018-06-25T08:52:04.558Z,74.71
2018-06-25T08:54:34.077Z,76.30
2018-06-25T08:57:03.636Z,73.62
2018-06-25T08:59:32.455Z,72.61
2018-06-25T09:02:01.968Z,73.18
2018-06-25T09:04:30.828Z,73.02
2018-06-25T09:06:59.696Z,72.02
2018-06-25T09:09:28.884Z,73.02
2018-06-25T09:11:57.950Z,73.37
2018-06-25T09:14:27.149Z,73.17
2018-06-25T09:16:56.028Z,72.70
2018-06-25T09:19:25.160Z,71.93
2018-06-25T09:21:54.515Z,72.31
2018-06-25T09:24:23.649Z,71.95
2018-06-25T09:26:52.807Z,71.10
2018-06-25T09:29:22.075Z,71.52
2018-06-25T09:31:51.422Z,70.06
2018-06-25T09:34:25.418Z,68.83
2018-06-25T09:36:54.956Z,67.72
2018-06-25T09:39:24.043Z,66.92
2018-06-25T09:41:53.290Z,67.21
2018-06-25T09:44:22.772Z,66.65
2018-06-25T09:46:52.494Z,66.41
2018-06-25T09:49:21.754Z,66.13
2018-06-25T09:51:50.819Z,63.78
2018-06-25T09:54:19.634Z,65.53
2018-06-25T09:56:49.269Z,66.21
2018-06-25T09:59:18.177Z,66.07
2018-06-25T10:01:46.988Z,63.54
2018-06-25T10:04:16.280Z,63.26
2018-06-25T10:06:45.389Z,63.82
2018-06-25T10:09:14.576Z,62.49
2018-06-25T10:11:43.999Z,60.99
2018-06-25T10:14:13.569Z,63.29
2018-06-25T10:16:42.427Z,64.20
2018-06-25T10:19:11.540Z,65.33
2018-06-25T10:21:40.930Z,65.68
2018-06-25T10:24:09.979Z,65.03
2018-06-25T10:26:38.824Z,63.43
2018-06-25T10:29:08.062Z,63.66
2018-06-25T10:31:37.714Z,60.87
2018-06-25T10:34:06.731Z,62.25
2018-06-25T10:36:35.813Z,63.16
2018-06-25T10:39:06.956Z,62.36
2018-06-25T10:41:36.449Z,63.53
2018-06-25T10:44:05.991Z,63.97
2018-06-25T10:46:35.413Z,63.62
2018-06-25T10:49:04.481Z,59.71
2018-06-25T10:51:33.593Z,59.67
2018-06-25T10:54:02.514Z,60.10
2018-06-25T10:56:31.332Z,60.26
2018-06-25T10:59:00.526Z,61.00
2018-06-25T11:01:29.545Z,59.88
2018-06-25T11:03:58.356Z,60.84
2018-06-25T11:06:27.249Z,61.44
2018-06-25T11:08:56.170Z,59.09
2018-06-25T11:11:25.816Z,58.13
2018-06-25T11:13:54.936Z,54.74
2018-06-25T11:16:23.991Z,57.25
2018-06-25T11:18:53.049Z,57.09
2018-06-25T11:21:22.204Z,57.04
2018-06-25T11:23:50.941Z,57.22
2018-06-25T11:26:20.496Z,57.76
2018-06-25T11:28:49.565Z,58.25
2018-06-25T11:31:18.555Z,58.78
2018-06-25T11:33:47.936Z,58.22
2018-06-25T11:36:16.754Z,58.44
2018-06-25T11:38:45.926Z,57.21
2018-06-25T11:41:14.794Z,56.86
2018-06-25T11:43:43.929Z,55.62
2018-06-25T11:46:13.036Z,56.65
2018-06-25T11:48:41.867Z,56.88
2018-06-25T11:51:11.244Z,57.30
2018-06-25T11:53:40.992Z,57.40
2018-06-25T11:56:10.039Z,55.86
2018-06-25T11:58:38.823Z,58.24
2018-06-25T12:01:08.147Z,58.17
2018-06-25T12:03:37.364Z,57.46
2018-06-25T12:06:06.452Z,57.63
2018-06-25T12:08:35.507Z,57.41
2018-06-25T12:11:04.693Z,54.87
2018-06-25T12:13:33.411Z,54.80
2018-06-25T12:16:02.419Z,55.57
2018-06-25T12:18:31.490Z,54.09
2018-06-25T12:21:00.862Z,52.69
2018-06-25T12:23:29.924Z,54.77
2018-06-25T12:25:59.198Z,52.85
2018-06-25T12:28:28.598Z,54.01
2018-06-25T12:30:57.832Z,54.40
2018-06-25T12:33:26.812Z,54.29
2018-06-25T12:35:55.883Z,53.24
2018-06-25T12:38:24.950Z,53.04
2018-06-25T12:40:54.019Z,52.27
2018-06-25T12:43:23.642Z,51.94
2018-06-25T12:45:52.660Z,53.45
2018-06-25T12:48:21.577Z,54.20
2018-06-25T12:50:50.536Z,53.23
2018-06-25T12:53:19.822Z,52.98
2018-06-25T12:55:48.877Z,52.11
2018-06-25T12:58:17.964Z,50.94
2018-06-25T13:00:46.721Z,51.60
2018-06-25T13:03:15.763Z,52.99
2018-06-25T13:05:44.866Z,52.72
2018-06-25T13:08:14.056Z,54.13
2018-06-25T13:10:43.229Z,53.12
2018-06-25T13:13:12.428Z,53.69
2018-06-25T13:15:41.315Z,52.28
2018-06-25T13:18:10.552Z,53.98
2018-06-25T13:20:39.566Z,53.02
2018-06-25T13:23:08.649Z,53.64
2018-06-25T13:25:38.107Z,53.77
2018-06-25T13:28:07.399Z,52.93
2018-06-25T13:30:36.955Z,52.57
2018-06-25T13:33:06.131Z,53.27
2018-06-25T13:35:34.956Z,50.84
2018-06-25T13:38:03.815Z,51.25
2018-06-25T13:40:33.473Z,50.31
2018-06-25T13:43:02.508Z,51.35
2018-06-25T13:45:31.370Z,51.90
2018-06-25T13:48:00.904Z,51.64
2018-06-25T13:50:30.040Z,51.74
2018-06-25T13:52:58.935Z,51.29
2018-06-25T13:55:28.039Z,53.21
2018-06-25T13:57:57.205Z,51.52
2018-06-25T14:00:26.258Z,52.86
2018-06-25T14:02:55.485Z,51.87
2018-06-25T14:05:24.624Z,52.21
2018-06-25T14:07:54.821Z,51.72
2018-06-25T14:10:23.870Z,52.28
2018-06-25T14:12:53.060Z,52.83
2018-06-25T14:15:21.949Z,52.27
2018-06-25T14:17:50.962Z,51.73
2018-06-25T14:20:19.772Z,52.68
2018-06-25T14:22:48.946Z,52.62
2018-06-25T14:25:17.767Z,51.97
2018-06-25T14:27:52.065Z,51.05
2018-06-25T14:30:26.307Z,51.70
2018-06-25T14:33:00.121Z,50.27
2018-06-25T14:35:29.765Z,49.95
2018-06-25T14:37:58.987Z,50.15
2018-06-25T14:40:27.901Z,50.20
2018-06-25T14:45:50.139Z,50.67
2018-06-25T14:48:19.253Z,50.33
2018-06-25T14:50:48.132Z,50.86
2018-06-25T14:53:17.272Z,50.27
2018-06-25T14:55:46.145Z,50.89
2018-06-25T14:58:14.976Z,50.28
2018-06-25T15:00:43.782Z,50.99
2018-06-25T15:03:13.407Z,51.28
2018-06-25T15:05:42.799Z,50.10
2018-06-25T15:08:11.624Z,50.79
2018-06-25T15:10:40.833Z,50.39
2018-06-25T15:13:10.665Z,51.58
2018-06-25T15:15:40.232Z,51.06
2018-06-25T15:18:09.632Z,52.13
2018-06-25T15:20:38.452Z,51.54
2018-06-25T15:23:07.590Z,52.75
2018-06-25T15:25:36.834Z,52.43
2018-06-25T15:28:05.999Z,53.55
2018-06-25T15:30:35.044Z,53.85
2018-06-25T15:33:04.138Z,53.33
2018-06-25T15:35:32.988Z,53.17
2018-06-25T15:38:02.204Z,52.79
2018-06-25T15:40:31.512Z,52.83
2018-06-25T15:43:00.378Z,53.09
2018-06-25T15:45:29.496Z,53.25
2018-06-25T15:47:58.713Z,54.38
2018-06-25T15:50:27.471Z,54.14
2018-06-25T15:52:56.378Z,53.40
2018-06-25T15:55:25.741Z,53.68
2018-06-25T15:57:55.148Z,53.38
2018-06-25T16:00:24.529Z,54.00
2018-06-25T16:02:53.450Z,52.92
2018-06-25T16:05:22.638Z,51.86
2018-06-25T16:07:52.076Z,52.59
2018-06-25T16:10:21.053Z,52.36
2018-06-25T16:12:50.455Z,52.53
2018-06-25T16:15:19.310Z,54.44
2018-06-25T16:17:48.615Z,54.75
2018-06-25T16:20:17.770Z,53.71
2018-06-25T16:22:47.428Z,53.97
2018-06-25T16:25:18.847Z,54.44
2018-06-25T16:27:47.769Z,55.30
2018-06-25T16:30:17.223Z,56.79
2018-06-25T16:32:46.245Z,56.32
2018-06-25T16:35:15.426Z,56.78
2018-06-25T16:37:45.369Z,56.54
2018-06-25T16:40:15.576Z,56.87
2018-06-25T16:42:44.883Z,57.79
2018-06-25T16:45:14.090Z,57.06
2018-06-25T16:47:43.694Z,57.55
2018-06-25T16:50:12.610Z,58.30
2018-06-25T16:52:41.770Z,59.04
2018-06-25T16:55:11.254Z,59.20
2018-06-25T16:57:40.093Z,59.71
2018-06-25T17:00:08.893Z,59.84
2018-06-25T17:02:37.757Z,60.16
2018-06-25T17:05:06.626Z,60.11
2018-06-25T17:07:35.505Z,60.14
2018-06-25T17:10:05.035Z,60.21
2018-06-25T17:12:33.848Z,60.46
2018-06-25T17:15:02.655Z,60.64
2018-06-25T17:17:31.800Z,61.19
2018-06-25T17:20:01.286Z,62.53
2018-06-25T17:22:30.463Z,63.52
2018-06-25T17:24:59.365Z,63.34
2018-06-25T17:27:28.563Z,64.02
2018-06-25T17:29:57.397Z,64.59
2018-06-25T17:32:26.484Z,64.41
2018-06-25T17:34:55.338Z,64.26
2018-06-25T17:37:25.273Z,64.58
2018-06-25T17:39:54.554Z,65.75
2018-06-25T17:42:23.674Z,65.20
2018-06-25T17:44:52.890Z,65.46
2018-06-25T17:47:22.079Z,65.50
2018-06-25T17:49:50.981Z,64.63
2018-06-25T17:52:20.163Z,65.18
2018-06-25T17:54:49.198Z,65.76
2018-06-25T17:57:18.103Z,65.98
2018-06-25T17:59:46.960Z,66.40
2018-06-25T18:02:51.460Z,65.79
2018-06-25T18:05:28.299Z,66.57
2018-06-25T18:07:57.432Z,67.24
2018-06-25T18:10:26.578Z,67.49
2018-06-25T18:12:55.475Z,67.02
2018-06-25T18:15:24.683Z,68.40
2018-06-25T18:17:54.383Z,68.35
2018-06-25T18:20:23.881Z,67.42
2018-06-25T18:22:53.338Z,67.99
2018-06-25T18:25:22.227Z,67.67
2018-06-25T18:27:51.460Z,67.72
2018-06-25T18:30:20.525Z,68.17
2018-06-25T18:33:08.924Z,68.12
2018-06-25T18:35:37.846Z,67.59
2018-06-25T18:38:06.890Z,67.54
2018-06-25T18:40:35.959Z,68.05
2018-06-25T18:43:05.390Z,67.69
2018-06-25T18:45:34.533Z,68.37
2018-06-25T18:48:03.375Z,67.93
2018-06-25T18:50:32.357Z,67.92
2018-06-25T18:53:01.427Z,67.96
2018-06-25T18:55:30.667Z,68.23
2018-06-25T18:57:59.839Z,68.47
2018-06-25T19:00:29.023Z,68.44
2018-06-25T19:02:58.214Z,68.09
2018-06-25T19:05:27.646Z,68.39
2018-06-25T19:07:57.231Z,68.72
2018-06-25T19:10:26.465Z,68.72
2018-06-25T19:12:55.693Z,68.51
2018-06-25T19:15:24.830Z,68.80
2018-06-25T19:17:53.655Z,68.83
2018-06-25T19:20:22.947Z,68.71
2018-06-25T19:22:51.745Z,68.90
2018-06-25T19:25:20.604Z,68.85
2018-06-25T19:27:49.455Z,68.74
2018-06-25T19:30:18.844Z,69.65
2018-06-25T19:32:47.625Z,69.34
2018-06-25T19:35:16.476Z,69.57
2018-06-25T19:37:45.692Z,70.06
2018-06-25T19:40:14.783Z,70.45
2018-06-25T19:42:44.063Z,70.57
2018-06-25T19:45:13.320Z,70.20
2018-06-25T19:47:43.004Z,70.64
2018-06-25T19:50:11.809Z,71.05
2018-06-25T19:52:41.226Z,71.29
2018-06-25T19:55:10.340Z,71.11
2018-06-25T19:57:39.416Z,70.98
2018-06-25T20:00:08.345Z,71.01
2018-06-25T20:02:37.200Z,71.29
2018-06-25T20:05:06.546Z,71.60
2018-06-25T20:07:35.906Z,71.84
2018-06-25T20:10:05.278Z,71.72
2018-06-25T20:12:34.099Z,71.30
2018-06-25T20:15:02.982Z,71.36
2018-06-25T20:17:32.326Z,71.46
2018-06-25T20:20:01.788Z,71.75
2018-06-25T20:22:31.285Z,72.96
2018-06-25T20:25:00.128Z,73.27
2018-06-25T20:27:29.219Z,73.04
2018-06-25T20:29:58.645Z,73.00
2018-06-25T20:32:27.840Z,73.18
2018-06-25T20:34:56.684Z,73.71
2018-06-25T20:37:26.695Z,74.27
2018-06-25T20:39:56.532Z,74.30
2018-06-25T20:42:27.304Z,74.39
2018-06-25T20:44:57.245Z,74.30
2018-06-25T20:47:27.237Z,74.18
2018-06-25T20:49:57.487Z,74.70
2018-06-25T20:52:27.572Z,74.48
2018-06-25T20:54:57.433Z,74.97
2018-06-25T20:57:27.584Z,74.77
2018-06-25T20:59:57.040Z,75.10
2018-06-25T21:02:25.943Z,75.19
2018-06-25T21:04:55.047Z,74.70
2018-06-25T21:07:23.852Z,75.05
2018-06-25T21:09:52.945Z,74.71
2018-06-25T21:12:22.718Z,74.98
2018-06-25T21:14:51.575Z,74.57
2018-06-25T21:17:20.441Z,74.84
2018-06-25T21:19:49.459Z,74.53
2018-06-25T21:22:18.868Z,75.00
2018-06-25T21:24:47.734Z,74.73
2018-06-25T21:27:17.216Z,75.18
2018-06-25T21:29:46.039Z,75.29
2018-06-25T21:32:15.176Z,75.70
2018-06-25T21:34:44.033Z,75.52
2018-06-25T21:37:12.833Z,75.84
2018-06-25T21:39:41.706Z,76.29
2018-06-25T21:42:10.956Z,76.19
2018-06-25T21:44:40.138Z,75.85
2018-06-25T21:47:08.988Z,76.21
2018-06-25T21:49:38.058Z,76.05
2018-06-25T21:52:06.971Z,75.66
2018-06-25T21:54:36.717Z,75.96
2018-06-25T21:57:05.821Z,75.97
2018-06-25T21:59:35.020Z,75.69
2018-06-25T22:02:03.958Z,75.51
2018-06-25T22:04:33.722Z,75.40
2018-06-25T22:07:02.725Z,75.31
2018-06-25T22:09:32.074Z,75.48
2018-06-25T22:12:01.299Z,75.79
2018-06-25T22:14:30.203Z,76.03
2018-06-25T22:16:59.570Z,75.86
2018-06-25T22:19:28.565Z,75.78
2018-06-25T22:21:57.478Z,75.67
2018-06-25T22:24:26.654Z,75.60
2018-06-25T22:26:55.491Z,76.33
2018-06-25T22:29:24.740Z,75.90
2018-06-25T22:31:54.276Z,76.49
2018-06-25T22:34:23.126Z,76.44
2018-06-25T22:36:52.295Z,76.17
2018-06-25T22:39:21.522Z,76.35
2018-06-25T22:41:50.369Z,76.43
2018-06-25T22:44:19.381Z,76.25
2018-06-25T22:46:48.441Z,76.39
2018-06-25T22:49:17.427Z,76.29
2018-06-25T22:51:46.244Z,76.98
2018-06-25T22:54:15.525Z,77.02
2018-06-25T22:56:44.320Z,77.27
2018-06-25T22:59:13.122Z,76.95
2018-06-25T23:01:42.234Z,76.38
2018-06-25T23:04:11.099Z,76.40
2018-06-25T23:06:39.929Z,76.63
2018-06-25T23:09:11.178Z,77.21
2018-06-25T23:11:40.248Z,76.80
2018-06-25T23:14:09.392Z,76.54
2018-06-25T23:16:38.575Z,76.94
2018-06-25T23:19:07.745Z,77.09
2018-06-25T23:21:36.690Z,77.00
2018-06-25T23:24:05.497Z,76.80
2018-06-25T23:26:34.383Z,76.88
2018-06-25T23:29:03.463Z,77.03
2018-06-25T23:31:32.614Z,77.59
2018-06-25T23:34:01.529Z,77.75
2018-06-25T23:36:30.680Z,78.02
2018-06-25T23:38:59.520Z,77.51
2018-06-25T23:41:28.385Z,77.74
2018-06-25T23:43:57.166Z,77.88
2018-06-25T23:46:26.018Z,77.66
2018-06-25T23:48:55.278Z,78.09
2018-06-25T23:51:24.086Z,77.76
2018-06-25T23:53:53.358Z,78.02
2018-06-25T23:56:22.947Z,78.39
2018-06-25T23:58:51.831Z,78.12
